createdAt,value
2019-04-16T02:44:27.745Z,7.72
2019-04-16T02:46:55.267Z,7.80
2019-04-16T02:49:24.540Z,8.13
2019-04-16T02:51:53.817Z,8.68
2019-04-16T02:54:24.276Z,8.33
2019-04-16T02:56:53.273Z,8.30
2019-04-16T02:59:22.462Z,8.28
2019-04-16T03:02:16.730Z,8.63
2019-04-16T03:04:48.945Z,8.13
2019-04-16T03:07:16.592Z,7.97
2019-04-16T03:09:44.660Z,7.20
2019-04-16T03:12:17.565Z,7.08
2019-04-16T03:14:43.942Z,7.97
2019-04-16T03:17:15.807Z,8.05
2019-04-16T03:19:44.799Z,7.15
2019-04-16T03:22:11.739Z,7.00
2019-04-16T03:24:40.280Z,7.65
2019-04-16T03:27:08.457Z,8.18
2019-04-16T03:29:50.308Z,8.10
2019-04-16T03:32:17.362Z,7.95
2019-04-16T03:34:44.560Z,7.08
2019-04-16T03:37:12.288Z,8.90
2019-04-16T03:39:43.601Z,8.13
2019-04-16T03:42:08.733Z,7.95
2019-04-16T03:44:37.281Z,8.60
2019-04-16T03:47:04.732Z,7.70
2019-04-16T03:49:32.329Z,8.45
2019-04-16T03:51:59.333Z,7.58
2019-04-16T03:54:26.296Z,8.13
2019-04-16T03:56:53.290Z,8.20
2019-04-16T03:59:20.309Z,8.13
2019-04-16T04:01:48.076Z,7.70
2019-04-16T04:04:15.458Z,8.40
2019-04-16T04:06:42.564Z,7.85
2019-04-16T04:09:10.600Z,8.63
2019-04-16T04:11:41.908Z,7.22
2019-04-16T04:14:10.344Z,7.83
2019-04-16T04:16:37.534Z,8.43
2019-04-16T04:19:14.090Z,7.55
2019-04-16T04:21:38.583Z,8.28
2019-04-16T04:24:05.932Z,8.70
2019-04-16T04:26:33.115Z,7.80
2019-04-16T04:29:00.088Z,7.85
2019-04-16T04:31:32.004Z,8.00
2019-04-16T04:33:56.087Z,8.40
2019-04-16T04:36:26.864Z,8.55
2019-04-16T04:38:52.364Z,7.53
2019-04-16T04:41:19.891Z,7.37
2019-04-16T04:43:48.221Z,8.75
2019-04-16T04:46:15.700Z,8.03
2019-04-16T04:48:42.900Z,8.43
2019-04-16T04:51:10.059Z,8.55
2019-04-16T04:53:37.154Z,8.00
2019-04-16T04:56:04.268Z,8.53
2019-04-16T04:58:33.754Z,9.30
2019-04-16T05:01:00.215Z,8.08
2019-04-16T05:03:34.982Z,7.67
2019-04-16T05:06:18.684Z,8.45
2019-04-16T05:08:45.637Z,8.48
2019-04-16T05:11:15.584Z,8.10
2019-04-16T05:13:41.500Z,8.55
2019-04-16T05:16:08.520Z,8.15
2019-04-16T05:18:38.236Z,7.90
2019-04-16T05:21:04.395Z,8.40
2019-04-16T05:23:31.360Z,8.00
2019-04-16T05:25:58.389Z,7.70
2019-04-16T05:28:25.337Z,8.23
2019-04-16T05:30:53.102Z,8.20
2019-04-16T05:33:20.168Z,7.00
2019-04-16T05:35:47.528Z,7.05
2019-04-16T05:38:14.499Z,8.85
2019-04-16T05:40:41.568Z,8.78
2019-04-16T05:43:08.461Z,8.33
2019-04-16T05:45:37.650Z,7.50
2019-04-16T05:48:04.287Z,7.20
2019-04-16T05:50:31.234Z,9.50
2019-04-16T05:52:58.149Z,8.15
2019-04-16T05:55:33.296Z,8.60
2019-04-16T05:58:00.262Z,8.63
2019-04-16T06:00:43.933Z,7.22
2019-04-16T06:03:12.253Z,8.18
2019-04-16T06:05:39.321Z,7.70
2019-04-16T06:08:10.396Z,7.55
2019-04-16T06:10:37.865Z,7.92
2019-04-16T06:13:13.205Z,9.45
2019-04-16T06:15:59.012Z,8.67
2019-04-16T06:18:38.117Z,9.30
2019-04-16T06:21:07.116Z,8.55
2019-04-16T06:23:41.966Z,7.62
2019-04-16T06:26:20.429Z,9.40
2019-04-16T06:28:56.375Z,8.77
2019-04-16T06:31:32.022Z,9.90
2019-04-16T06:34:00.834Z,9.40
2019-04-16T06:36:32.792Z,10.00
2019-04-16T06:39:01.670Z,9.13
2019-04-16T06:41:41.944Z,10.48
2019-04-16T06:44:07.305Z,8.60
2019-04-16T06:46:39.710Z,10.30
2019-04-16T06:49:19.250Z,10.80
2019-04-16T06:51:48.336Z,9.23
2019-04-16T06:54:34.398Z,9.87
2019-04-16T06:57:21.323Z,9.45
2019-04-16T07:00:07.310Z,8.90
2019-04-16T07:02:43.095Z,10.40
2019-04-16T07:05:09.988Z,10.23
2019-04-16T07:07:45.913Z,10.43
2019-04-16T07:10:12.884Z,10.20
2019-04-16T07:12:40.141Z,10.20
2019-04-16T07:15:08.255Z,9.13
2019-04-16T07:17:35.228Z,10.47
2019-04-16T07:20:13.125Z,10.50
2019-04-16T07:22:37.423Z,11.70
2019-04-16T07:25:06.168Z,10.60
2019-04-16T07:27:52.254Z,11.47
2019-04-16T07:30:20.809Z,12.03
2019-04-16T07:32:51.926Z,10.80
2019-04-16T07:35:37.575Z,10.37
2019-04-16T07:38:11.504Z,10.63
2019-04-16T07:40:49.842Z,11.70
2019-04-16T07:43:35.627Z,11.23
2019-04-16T07:46:04.417Z,11.53
2019-04-16T07:48:39.368Z,11.03
2019-04-16T07:51:11.606Z,12.17
2019-04-16T07:53:55.626Z,12.60
2019-04-16T07:56:25.336Z,11.00
2019-04-16T07:58:52.253Z,11.00
2019-04-16T08:01:19.332Z,11.20
2019-04-16T08:03:46.297Z,11.87
2019-04-16T08:06:14.427Z,12.17
2019-04-16T08:08:41.530Z,12.10
2019-04-16T08:11:08.724Z,12.43
2019-04-16T08:13:37.593Z,12.57
2019-04-16T08:16:04.526Z,13.00
2019-04-16T08:18:31.581Z,11.77
2019-04-16T08:21:01.683Z,12.63
2019-04-16T08:23:38.928Z,11.50
2019-04-16T08:26:11.029Z,13.17
2019-04-16T08:28:33.747Z,11.93
2019-04-16T08:31:01.721Z,13.07
2019-04-16T08:33:29.364Z,12.77
2019-04-16T08:35:56.403Z,13.40
2019-04-16T08:38:25.857Z,12.67
2019-04-16T08:40:52.095Z,12.80
2019-04-16T08:43:19.129Z,12.70
2019-04-16T08:45:46.088Z,12.10
2019-04-16T08:48:17.053Z,13.20
2019-04-16T08:50:41.886Z,12.50
2019-04-16T08:53:13.554Z,14.63
2019-04-16T08:55:37.967Z,12.97
2019-04-16T08:58:06.314Z,14.27
2019-04-16T09:00:34.497Z,12.90
2019-04-16T09:03:01.602Z,13.50
2019-04-16T09:05:28.704Z,14.63
2019-04-16T09:08:10.932Z,13.40
2019-04-16T09:10:29.997Z,13.97
2019-04-16T09:13:04.043Z,13.90
2019-04-16T09:15:33.694Z,14.10
2019-04-16T09:18:05.638Z,13.63
2019-04-16T09:20:37.480Z,12.57
2019-04-16T09:23:03.521Z,13.70
2019-04-16T09:25:35.228Z,13.20
2019-04-16T09:28:07.912Z,13.40
2019-04-16T09:30:35.669Z,14.43
2019-04-16T09:33:10.569Z,14.23
2019-04-16T09:35:48.250Z,13.43
2019-04-16T09:38:25.733Z,14.53
2019-04-16T09:41:12.892Z,15.80
2019-04-16T09:43:53.756Z,14.07
2019-04-16T09:46:26.604Z,14.33
2019-04-16T09:48:50.187Z,15.47
2019-04-16T09:51:20.516Z,14.37
2019-04-16T09:53:46.227Z,13.57
2019-04-16T09:56:29.001Z,14.40
2019-04-16T09:58:56.586Z,14.40
2019-04-16T10:01:25.488Z,14.40
2019-04-16T10:03:57.121Z,14.37
2019-04-16T10:06:24.256Z,14.47
2019-04-16T10:08:51.288Z,16.87
2019-04-16T10:11:19.348Z,14.60
2019-04-16T10:13:46.695Z,15.40
2019-04-16T10:16:14.435Z,14.70
2019-04-16T10:18:41.487Z,14.73
2019-04-16T10:21:08.541Z,14.60
2019-04-16T10:23:43.273Z,15.07
2019-04-16T10:26:10.840Z,13.37
2019-04-16T10:28:42.741Z,15.53
2019-04-16T10:31:11.740Z,14.60
2019-04-16T10:33:38.827Z,15.37
2019-04-16T10:36:06.201Z,14.13
2019-04-16T10:38:51.773Z,14.90
2019-04-16T10:41:32.949Z,15.60
2019-04-16T10:44:13.850Z,14.97
2019-04-16T10:46:46.809Z,14.60
2019-04-16T10:49:21.979Z,15.70
2019-04-16T10:51:56.929Z,14.27
2019-04-16T10:54:37.321Z,15.03
2019-04-16T10:57:10.425Z,15.50
2019-04-16T11:00:01.712Z,16.13
2019-04-16T11:02:33.632Z,15.70
2019-04-16T11:05:19.241Z,14.00
2019-04-16T11:07:51.417Z,14.60
2019-04-16T11:10:19.292Z,14.30
2019-04-16T11:12:46.382Z,13.60
2019-04-16T11:15:15.413Z,15.77
2019-04-16T11:17:42.406Z,15.60
2019-04-16T11:20:09.678Z,15.13
2019-04-16T11:22:36.750Z,15.53
2019-04-16T11:25:04.126Z,15.67
2019-04-16T11:27:31.176Z,14.27
2019-04-16T11:29:58.207Z,14.87
2019-04-16T11:32:30.129Z,14.37
2019-04-16T11:34:58.005Z,13.90
2019-04-16T11:37:25.291Z,13.20
2019-04-16T11:39:52.540Z,14.83
2019-04-16T11:42:19.482Z,13.30
2019-04-16T11:44:50.065Z,12.40
2019-04-16T11:47:15.804Z,13.50
2019-04-16T11:49:42.915Z,15.93
2019-04-16T11:52:09.982Z,13.67
2019-04-16T11:54:36.981Z,15.20
2019-04-16T11:57:04.070Z,16.70
2019-04-16T11:59:32.916Z,15.47
2019-04-16T12:02:04.363Z,15.60
2019-04-16T12:04:49.052Z,15.20
2019-04-16T12:07:36.433Z,16.13
2019-04-16T12:10:17.656Z,14.50
2019-04-16T12:12:46.695Z,14.27
2019-04-16T12:15:15.756Z,15.50
2019-04-16T12:18:01.851Z,15.70
2019-04-16T12:20:47.669Z,16.10
2019-04-16T12:23:35.263Z,14.03
2019-04-16T12:26:20.877Z,14.47
2019-04-16T12:29:07.707Z,13.43
2019-04-16T12:31:57.492Z,11.33
2019-04-16T12:34:35.552Z,10.17
2019-04-16T12:37:16.434Z,11.17
2019-04-16T12:40:02.514Z,10.60
2019-04-16T12:42:41.263Z,13.07
2019-04-16T12:45:25.953Z,12.00
2019-04-16T12:47:59.147Z,10.30
2019-04-16T12:50:28.250Z,10.70
2019-04-16T12:52:57.443Z,12.77
2019-04-16T12:55:43.068Z,11.60
2019-04-16T12:58:18.891Z,10.03
2019-04-16T13:00:48.757Z,12.40
2019-04-16T13:03:18.332Z,11.47
2019-04-16T13:06:04.108Z,11.20
2019-04-16T13:08:33.322Z,11.90
2019-04-16T13:11:11.475Z,10.93
2019-04-16T13:13:43.506Z,10.70
2019-04-16T13:16:12.356Z,10.70
2019-04-16T13:18:41.289Z,9.60
2019-04-16T13:21:22.228Z,10.37
2019-04-16T13:23:55.872Z,11.73
2019-04-16T13:26:26.008Z,10.20
2019-04-16T13:28:55.425Z,12.13
2019-04-16T13:31:22.186Z,13.50
2019-04-16T13:33:50.912Z,11.20
2019-04-16T13:36:18.105Z,9.53
2019-04-16T13:38:52.908Z,11.07
2019-04-16T13:41:25.944Z,11.40
2019-04-16T13:44:09.263Z,12.70
2019-04-16T13:46:36.064Z,14.00
2019-04-16T13:49:05.085Z,12.93
2019-04-16T13:51:33.964Z,13.40
2019-04-16T13:54:05.640Z,11.60
2019-04-16T13:56:43.486Z,12.00
2019-04-16T13:59:18.418Z,11.87
2019-04-16T14:01:47.346Z,11.20
2019-04-16T14:04:14.249Z,12.57
2019-04-16T14:06:41.308Z,10.60
2019-04-16T14:09:09.304Z,10.87
2019-04-16T14:11:36.349Z,10.40
2019-04-16T14:14:07.891Z,12.63
2019-04-16T14:16:32.640Z,11.17
2019-04-16T14:19:02.210Z,12.23
2019-04-16T14:21:28.811Z,12.03
2019-04-16T14:23:55.954Z,12.00
2019-04-16T14:26:23.288Z,14.97
2019-04-16T14:28:52.231Z,14.17
2019-04-16T14:31:21.325Z,15.30
2019-04-16T14:33:56.266Z,11.77
2019-04-16T14:36:23.617Z,11.60
2019-04-16T14:39:06.827Z,12.37
2019-04-16T14:41:30.926Z,10.87
2019-04-16T14:44:02.522Z,10.67
2019-04-16T14:46:29.136Z,10.90
2019-04-16T14:48:56.274Z,11.93
2019-04-16T14:51:23.177Z,10.63
2019-04-16T14:53:53.301Z,11.70
2019-04-16T14:56:28.521Z,12.80
2019-04-16T14:59:26.749Z,11.67
2019-04-16T15:01:48.156Z,12.20
2019-04-16T15:04:17.104Z,12.47
2019-04-16T15:06:58.361Z,11.80
2019-04-16T15:09:27.205Z,11.40
2019-04-16T15:12:11.302Z,11.33
2019-04-16T15:14:55.045Z,10.63
2019-04-16T15:17:30.373Z,10.27
2019-04-16T15:20:14.873Z,11.00
2019-04-16T15:23:01.035Z,10.93
2019-04-16T15:25:29.977Z,10.83
2019-04-16T15:28:05.066Z,13.60
2019-04-16T15:30:52.434Z,13.60
2019-04-16T15:33:27.609Z,11.20
2019-04-16T15:35:59.777Z,12.73
2019-04-16T15:38:32.590Z,15.40
2019-04-16T15:41:17.229Z,14.80
2019-04-16T15:44:02.072Z,12.50
2019-04-16T15:46:41.356Z,10.40
2019-04-16T15:49:27.525Z,9.50
2019-04-16T15:52:14.728Z,12.20
2019-04-16T15:54:55.421Z,14.90
2019-04-16T15:57:40.807Z,11.90
2019-04-16T16:00:13.177Z,12.03
2019-04-16T16:02:59.127Z,8.87
2019-04-16T16:05:28.209Z,7.13
2019-04-16T16:08:14.035Z,7.47
2019-04-16T16:10:45.376Z,6.60
2019-04-16T16:13:12.218Z,6.23
2019-04-16T16:15:40.602Z,6.80
2019-04-16T16:18:08.033Z,6.10
2019-04-16T16:20:35.043Z,6.20
2019-04-16T16:23:01.977Z,7.67
2019-04-16T16:25:29.157Z,7.00
2019-04-16T16:27:56.361Z,7.57
2019-04-16T16:30:23.336Z,9.30
2019-04-16T16:32:50.566Z,7.07
2019-04-16T16:35:18.092Z,6.90
2019-04-16T16:37:45.229Z,7.37
2019-04-16T16:40:15.227Z,7.10
2019-04-16T16:42:41.544Z,7.07
2019-04-16T16:45:08.701Z,6.60
2019-04-16T16:47:39.658Z,7.30
2019-04-16T16:50:10.313Z,6.60
2019-04-16T16:52:50.215Z,7.87
2019-04-16T16:55:28.581Z,8.60
2019-04-16T16:58:17.954Z,7.37
2019-04-16T17:01:05.842Z,6.93
2019-04-16T17:03:40.722Z,6.60
2019-04-16T17:06:09.718Z,9.00
2019-04-16T17:08:37.047Z,8.73
2019-04-16T17:11:15.736Z,7.40
2019-04-16T17:13:33.220Z,6.07
2019-04-16T17:16:00.710Z,5.13
2019-04-16T17:18:27.812Z,5.23
2019-04-16T17:20:55.138Z,4.30
2019-04-16T17:23:25.576Z,4.00
2019-04-16T17:25:59.760Z,4.50
2019-04-16T17:28:27.099Z,3.90
2019-04-16T17:30:54.225Z,4.27
2019-04-16T17:33:21.362Z,4.03
2019-04-16T17:35:48.745Z,4.93
2019-04-16T17:38:15.894Z,3.87
2019-04-16T17:40:51.144Z,4.30
2019-04-16T17:43:30.413Z,3.83
2019-04-16T17:46:08.407Z,3.97
2019-04-16T17:48:49.872Z,4.17
2019-04-16T17:51:24.811Z,4.80
2019-04-16T17:54:09.221Z,4.60
2019-04-16T17:56:44.002Z,4.47
2019-04-16T17:59:13.025Z,4.03
2019-04-16T18:01:58.697Z,4.80
2019-04-16T18:04:36.240Z,5.40
2019-04-16T18:07:21.752Z,5.10
2019-04-16T18:10:00.142Z,4.27
2019-04-16T18:12:27.175Z,4.20
2019-04-16T18:14:59.227Z,3.80
2019-04-16T18:17:30.044Z,3.80
2019-04-16T18:20:11.053Z,4.70
2019-04-16T18:22:45.034Z,4.07
2019-04-16T18:25:16.982Z,4.43
2019-04-16T18:28:04.623Z,3.57
2019-04-16T18:30:31.918Z,3.57
2019-04-16T18:33:05.348Z,3.37
2019-04-16T18:35:31.722Z,3.13
2019-04-16T18:38:03.493Z,3.27
2019-04-16T18:40:32.493Z,3.60
2019-04-16T18:43:07.073Z,3.67
2019-04-16T18:45:55.827Z,3.90
2019-04-16T18:48:23.369Z,3.20
2019-04-16T18:50:50.383Z,3.67
2019-04-16T18:53:17.388Z,4.17
2019-04-16T18:55:44.273Z,3.90
2019-04-16T18:58:11.300Z,4.17
2019-04-16T19:00:45.762Z,3.50
2019-04-16T19:03:14.994Z,3.50
2019-04-16T19:05:42.013Z,3.30
2019-04-16T19:08:09.529Z,4.63
2019-04-16T19:10:37.071Z,4.20
2019-04-16T19:13:09.689Z,4.43
2019-04-16T19:15:33.163Z,3.80
2019-04-16T19:18:00.639Z,4.07
2019-04-16T19:20:28.077Z,3.17
2019-04-16T19:22:55.129Z,3.43
2019-04-16T19:25:22.949Z,3.40
2019-04-16T19:27:50.675Z,3.47
2019-04-16T19:30:17.816Z,2.97
2019-04-16T19:32:45.063Z,3.13
2019-04-16T19:35:17.727Z,3.00
2019-04-16T19:37:40.894Z,3.40
2019-04-16T19:40:08.206Z,3.00
2019-04-16T19:42:35.381Z,2.30
2019-04-16T19:45:02.848Z,2.70
2019-04-16T19:47:30.126Z,2.40
2019-04-16T19:49:57.187Z,2.80
2019-04-16T19:52:24.467Z,2.47
2019-04-16T19:54:51.584Z,2.73
2019-04-16T19:57:18.828Z,2.97
2019-04-16T19:59:46.659Z,2.60
2019-04-16T20:02:14.842Z,2.63
2019-04-16T20:04:44.554Z,2.63
2019-04-16T20:07:11.498Z,2.73
2019-04-16T20:09:39.184Z,2.60
2019-04-16T20:12:06.637Z,2.57
2019-04-16T20:14:36.246Z,3.07
2019-04-16T20:17:03.065Z,2.80
2019-04-16T20:19:30.820Z,2.70
2019-04-16T20:21:57.959Z,3.10
2019-04-16T20:24:25.313Z,3.03
2019-04-16T20:26:52.768Z,3.20
2019-04-16T20:29:20.179Z,2.83
2019-04-16T20:31:47.300Z,2.70
2019-04-16T20:34:17.875Z,3.00
2019-04-16T20:36:43.643Z,3.20
2019-04-16T20:39:10.915Z,2.57
2019-04-16T20:41:38.247Z,2.33
2019-04-16T20:44:08.546Z,2.37
2019-04-16T20:46:34.434Z,2.37
2019-04-16T20:49:09.009Z,2.70
2019-04-16T20:51:30.760Z,2.60
2019-04-16T20:53:57.902Z,2.60
2019-04-16T20:56:25.205Z,3.03
2019-04-16T20:58:52.694Z,2.63
2019-04-16T21:01:32.884Z,2.50
2019-04-16T21:04:04.543Z,3.10
2019-04-16T21:06:27.086Z,3.03
2019-04-16T21:08:57.146Z,2.47
2019-04-16T21:11:23.486Z,2.60
2019-04-16T21:13:50.820Z,2.83
2019-04-16T21:16:20.625Z,2.40
2019-04-16T21:18:47.817Z,2.77
2019-04-16T21:21:14.761Z,2.30
2019-04-16T21:23:43.803Z,2.73
2019-04-16T21:26:11.165Z,2.37
2019-04-16T21:28:40.174Z,2.80
2019-04-16T21:31:09.706Z,2.73
2019-04-16T21:33:43.459Z,3.10
2019-04-16T21:36:12.490Z,2.20
2019-04-16T21:38:45.135Z,2.30
2019-04-16T21:41:13.664Z,2.47
2019-04-16T21:43:40.977Z,2.00
2019-04-16T21:46:08.220Z,2.13
2019-04-16T21:48:35.480Z,2.60
2019-04-16T21:51:02.617Z,2.20
2019-04-16T21:53:29.664Z,2.00
2019-04-16T21:55:58.849Z,2.37
2019-04-16T21:58:26.898Z,2.07
2019-04-16T22:00:55.776Z,2.10
2019-04-16T22:03:24.694Z,2.77
2019-04-16T22:05:55.934Z,2.47
2019-04-16T22:08:23.547Z,2.70
2019-04-16T22:10:51.679Z,3.00
2019-04-16T22:13:21.277Z,2.77
2019-04-16T22:15:48.494Z,2.87
2019-04-16T22:18:15.588Z,2.60
2019-04-16T22:20:42.675Z,2.63
2019-04-16T22:23:09.704Z,2.23
2019-04-16T22:25:36.869Z,2.60
2019-04-16T22:28:05.458Z,2.20
2019-04-16T22:30:32.718Z,2.40
2019-04-16T22:33:04.967Z,2.27
2019-04-16T22:35:31.721Z,2.20
2019-04-16T22:37:57.513Z,2.57
2019-04-16T22:40:26.914Z,2.50
2019-04-16T22:42:57.322Z,2.20
2019-04-16T22:45:32.367Z,2.30
2019-04-16T22:47:59.403Z,1.73
2019-04-16T22:50:26.437Z,2.40
2019-04-16T22:52:53.397Z,2.47
2019-04-16T22:55:24.397Z,2.27
2019-04-16T22:57:49.204Z,1.90
2019-04-16T23:00:24.257Z,2.57
2019-04-16T23:02:52.349Z,1.97
2019-04-16T23:05:24.511Z,2.30
2019-04-16T23:07:51.732Z,2.13
2019-04-16T23:10:21.090Z,2.37
2019-04-16T23:12:47.566Z,1.80
2019-04-16T23:15:14.683Z,2.03
2019-04-16T23:17:42.821Z,1.93
2019-04-16T23:20:10.495Z,2.30
2019-04-16T23:22:37.639Z,2.30
2019-04-16T23:25:04.531Z,2.13
2019-04-16T23:27:31.505Z,2.50
2019-04-16T23:29:58.651Z,2.20
2019-04-16T23:32:28.700Z,2.60
2019-04-16T23:34:54.570Z,2.10
2019-04-16T23:37:23.401Z,2.43
2019-04-16T23:39:50.409Z,2.40
2019-04-16T23:42:19.044Z,2.10
2019-04-16T23:44:50.853Z,2.10
2019-04-16T23:47:28.438Z,2.20
2019-04-16T23:50:06.441Z,1.90
2019-04-16T23:52:35.513Z,1.80
2019-04-16T23:55:05.077Z,1.83
2019-04-16T23:57:39.721Z,2.07
